Time;durP1;ratioP1;P1;durP2;ratioP2;P2;SDS_P1;SDS_P2;PMS_P1;PMS_P2;Temp;Humidity;BMP_temperature;BMP_pressure;BME280_temperature;BME280_humidity;BME280_pressure;Samples;Min_cycle;Max_cycle;Signal;HPM_P1;HPM_P2
2023/03/28 00:01:02;;;;;;;1.00;1.00;;;;;;;18.32;40.11;100386.47;7395252;19;20018;-82
2023/03/28 00:03:28;;;;;;;3.72;0.68;;;;;;;18.10;40.39;100387.28;7396211;19;20356;-82
2023/03/28 00:05:56;;;;;;;4.30;1.33;;;;;;;17.55;41.31;100384.47;7393484;19;20248;-82
2023/03/28 00:08:22;;;;;;;2.65;0.85;;;;;;;17.42;41.52;100377.28;7395630;19;20026;-83
2023/03/28 00:10:48;;;;;;;1.00;0.80;;;;;;;17.46;41.41;100368.56;7393204;19;20038;-83
2023/03/28 00:13:18;;;;;;;4.28;0.65;;;;;;;16.86;42.30;100372.03;7395643;19;20026;-83
2023/03/28 00:15:44;;;;;;;1.50;1.33;;;;;;;16.77;42.24;100370.19;7393250;19;20038;-82
2023/03/28 00:18:10;;;;;;;0.93;0.93;;;;;;;17.99;40.98;100365.53;7394985;19;20022;-83
2023/03/28 00:20:42;;;;;;;1.00;1.00;;;;;;;17.12;41.98;100372.59;7393729;19;20074;-83
2023/03/28 00:23:10;;;;;;;0.40;0.40;;;;;;;19.55;39.15;100369.25;7395530;19;20031;-83
2023/03/28 00:25:39;;;;;;;1.38;1.10;;;;;;;18.33;39.93;100371.09;7394564;19;20022;-82
2023/03/28 00:28:05;;;;;;;0.80;0.80;;;;;;;17.34;41.74;100372.66;7394976;19;20011;-83
2023/03/28 00:30:31;;;;;;;2.88;2.25;;;;;;;17.88;40.91;100370.41;7393188;19;20015;-83
2023/03/28 00:32:58;;;;;;;1.02;1.02;;;;;;;18.04;40.57;100367.56;7394108;19;20488;-83
2023/03/28 00:35:24;;;;;;;7.22;1.05;;;;;;;17.53;41.51;100361.69;7392572;19;20017;-83
2023/03/28 00:37:56;;;;;;;0.57;0.55;;;;;;;17.59;41.00;100366.03;7393030;19;20044;-83
2023/03/28 00:40:26;;;;;;;1.13;1.05;;;;;;;19.85;39.27;100348.69;7394410;19;20007;-83
2023/03/28 00:42:53;;;;;;;2.65;0.93;;;;;;;19.46;39.28;100358.28;7394610;19;20022;-83
2023/03/28 00:45:22;;;;;;;1.60;1.00;;;;;;;18.49;39.75;100356.22;7394328;19;20038;-83
2023/03/28 00:48:15;;;;;;;0.65;0.65;;;;;;;18.51;40.40;100353.63;7395400;19;20029;-83
2023/03/28 00:50:48;;;;;;;0.88;0.88;;;;;;;18.34;40.11;100356.50;7390817;19;20038;-82
2023/03/28 00:53:24;;;;;;;1.88;1.73;;;;;;;18.83;39.72;100352.72;7397418;19;20081;-82
2023/03/28 00:56:13;;;;;;;1.85;1.75;;;;;;;18.96;39.42;100348.53;7393635;19;20446;-83
2023/03/28 00:58:43;;;;;;;1.05;1.05;;;;;;;19.97;38.43;100347.28;7391882;19;20014;-83
2023/03/28 01:01:14;;;;;;;0.90;0.90;;;;;;;19.16;39.20;100345.34;7391395;19;20014;-83
2023/03/28 01:03:45;;;;;;;1.23;1.23;;;;;;;18.77;39.46;100340.72;7391317;19;20469;-83
2023/03/28 01:06:15;;;;;;;1.70;0.82;;;;;;;20.08;38.33;100333.81;7392175;19;20014;-83
2023/03/28 01:08:43;;;;;;;1.38;0.63;;;;;;;19.46;39.08;100340.53;7393412;19;20511;-82
2023/03/28 01:11:10;;;;;;;1.52;1.20;;;;;;;20.06;38.56;100339.22;7393492;19;20014;-83
2023/03/28 01:13:42;;;;;;;0.68;0.65;;;;;;;21.49;36.82;100327.34;7392604;19;20464;-83
2023/03/28 01:16:13;;;;;;;1.45;1.25;;;;;;;21.22;36.60;100327.78;7389588;19;20014;-82
2023/03/28 01:18:45;;;;;;;3.38;0.52;;;;;;;21.54;36.55;100328.56;7390308;19;20342;-83
2023/03/28 01:21:20;;;;;;;;;;;;;;;19.31;38.84;100323.94;7393353;19;20022;-83
2023/03/28 01:24:09;;;;;;;1.48;0.63;;;;;;;17.62;41.03;100319.19;7393535;19;19919;-83
2023/03/28 01:27:27;;;;;;;0.35;0.35;;;;;;;17.17;42.03;100324.00;7393928;19;20099;-83
2023/03/28 01:30:19;;;;;;;5.13;1.17;;;;;;;17.28;42.24;100318.41;7389860;19;20011;-83
2023/03/28 01:33:41;;;;;;;1.83;1.60;;;;;;;17.30;42.72;100316.59;7391596;19;20030;-83
2023/03/28 01:36:16;;;;;;;1.25;1.15;;;;;;;17.13;43.38;100323.50;7392924;19;20044;-83
2023/03/28 01:39:02;;;;;;;10.00;1.58;;;;;;;17.22;43.78;100323.22;7392022;19;20021;-83
2023/03/28 01:41:48;;;;;;;0.88;0.88;;;;;;;17.89;43.23;100321.97;7391200;19;20369;-83
2023/03/28 01:44:43;;;;;;;1.60;1.00;;;;;;;19.28;41.30;100312.91;7392178;19;20457;-83
2023/03/28 01:47:27;;;;;;;2.40;1.35;;;;;;;19.17;41.79;100308.13;7393333;19;20018;-83
2023/03/28 01:50:19;;;;;;;7.18;1.15;;;;;;;19.99;40.88;100307.97;7390701;19;20015;-83
2023/03/28 01:53:13;;;;;;;0.75;0.50;;;;;;;19.60;41.68;100309.09;7393574;19;20078;-83
2023/03/28 01:55:48;;;;;;;14.02;1.50;;;;;;;19.99;41.22;100302.31;7392283;19;20344;-83
2023/03/28 01:58:21;;;;;;;1.23;1.02;;;;;;;18.22;43.76;100300.63;7391583;19;20479;-83
2023/03/28 02:01:04;;;;;;;0.60;0.60;;;;;;;18.91;42.66;100304.94;7389982;19;20014;-83
2023/03/28 02:03:35;;;;;;;0.85;0.85;;;;;;;19.49;42.52;100295.06;7391404;19;20018;-83
2023/03/28 02:06:10;;;;;;;4.20;2.10;;;;;;;19.24;43.27;100292.66;7390588;19;20078;-83
2023/03/28 02:08:43;;;;;;;0.55;0.55;;;;;;;19.15;42.54;100288.09;7391324;19;20311;-84
2023/03/28 02:11:32;;;;;;;1.20;1.17;;;;;;;18.57;43.99;100283.84;7391011;19;20011;-83
2023/03/28 02:14:22;;;;;;;;;;;;;;;19.37;43.36;100276.69;7393659;19;20017;-83
2023/03/28 02:16:53;;;;;;;2.15;1.20;;;;;;;19.30;43.53;100263.09;7390266;19;19914;-83
2023/03/28 02:19:36;;;;;;;1.85;1.60;;;;;;;20.15;42.21;100259.69;7388559;19;20086;-83
2023/03/28 02:22:26;;;;;;;1.17;0.88;;;;;;;20.18;42.54;100269.19;7390522;19;20166;-84
2023/03/28 02:25:17;;;;;;;1.75;0.90;;;;;;;19.63;43.22;100248.69;7388893;19;20476;-83
2023/03/28 02:28:07;;;;;;;5.40;1.67;;;;;;;20.05;42.99;100249.28;7390395;19;20010;-84
2023/03/28 02:30:40;;;;;;;4.57;1.08;;;;;;;20.05;44.13;100247.22;7393647;19;20025;-83
2023/03/28 02:33:40;;;;;;;2.67;1.35;;;;;;;20.07;44.13;100235.38;7397227;19;20050;-83
2023/03/28 02:36:28;;;;;;;2.50;0.63;;;;;;;20.36;44.09;100226.78;7397346;19;20035;-83
2023/03/28 02:39:30;;;;;;;2.28;1.02;;;;;;;20.54;44.01;100225.28;7398165;19;20070;-83
2023/03/28 02:42:32;;;;;;;21.98;1.65;;;;;;;21.01;43.52;100215.03;7397767;19;20036;-83
2023/03/28 02:45:26;;;;;;;0.30;0.30;;;;;;;21.63;42.81;100215.53;7398881;19;20021;-83
2023/03/28 02:48:00;;;;;;;1.55;0.80;;;;;;;20.68;43.88;100201.38;7399957;19;20011;-84
2023/03/28 02:50:29;;;;;;;2.67;1.83;;;;;;;20.74;44.05;100202.09;7395092;19;20370;-83
2023/03/28 02:53:09;;;;;;;16.67;1.35;;;;;;;20.72;43.83;100192.59;7399559;19;20041;-84
2023/03/28 02:55:38;;;;;;;1.40;0.65;;;;;;;20.68;44.05;100195.72;7399331;19;20015;-84
2023/03/28 02:58:21;;;;;;;4.95;2.28;;;;;;;20.98;44.30;100184.97;7398014;19;20038;-85
2023/03/28 03:00:48;;;;;;;1.15;1.02;;;;;;;21.08;43.72;100182.50;7397444;19;20022;-83
2023/03/28 03:03:16;;;;;;;4.15;1.52;;;;;;;20.85;43.90;100179.28;7398157;19;20018;-83
2023/03/28 03:05:42;;;;;;;1.00;0.88;;;;;;;20.39;44.16;100171.22;7397174;19;20074;-83
2023/03/28 03:08:09;;;;;;;1.60;1.10;;;;;;;20.42;44.04;100175.81;7396211;19;20020;-84
2023/03/28 03:10:35;;;;;;;1.02;0.98;;;;;;;20.62;43.55;100168.84;7395018;19;20018;-84
2023/03/28 03:13:01;;;;;;;1.08;0.98;;;;;;;20.43;44.01;100163.19;7397375;19;20021;-84
2023/03/28 03:15:30;;;;;;;2.03;1.75;;;;;;;20.75;43.59;100163.97;7397072;19;20011;-84
2023/03/28 03:17:58;;;;;;;2.53;1.52;;;;;;;20.51;43.60;100166.91;7397692;19;20066;-84
2023/03/28 03:20:32;;;;;;;1.58;1.05;;;;;;;20.35;44.02;100162.28;7396635;19;20031;-84
2023/03/28 03:23:01;;;;;;;;;;;;;;;20.38;43.90;100155.53;7402162;19;20006;-83
2023/03/28 03:25:30;;;;;;;0.55;0.55;;;;;;;20.49;43.54;100152.53;7396574;19;19915;-84
2023/03/28 03:28:25;;;;;;;0.73;0.70;;;;;;;20.65;43.25;100153.59;7394277;19;20019;-84
2023/03/28 03:30:52;;;;;;;0.77;0.77;;;;;;;20.76;43.10;100142.09;7394373;19;20011;-84
2023/03/28 03:33:34;;;;;;;0.77;0.77;;;;;;;20.44;43.40;100138.50;7396858;19;20503;-84
2023/03/28 03:36:05;;;;;;;1.40;1.33;;;;;;;20.17;44.00;100131.88;7397667;19;20034;-83
2023/03/28 03:38:31;;;;;;;1.48;0.88;;;;;;;20.31;43.56;100134.28;7396897;19;20086;-84
2023/03/28 03:40:58;;;;;;;2.45;1.27;;;;;;;19.89;43.89;100120.97;7393444;19;20084;-84
2023/03/28 03:43:26;;;;;;;4.10;0.70;;;;;;;18.60;46.14;100127.66;7396234;19;20027;-83
2023/03/28 03:45:53;;;;;;;4.50;0.90;;;;;;;19.55;45.55;100122.69;7395643;19;20070;-84
2023/03/28 03:48:19;;;;;;;0.68;0.68;;;;;;;18.53;46.11;100114.13;7399586;19;20011;-84
2023/03/28 03:50:45;;;;;;;1.83;0.90;;;;;;;18.42;47.15;100114.16;7394176;19;20512;-84
2023/03/28 03:53:15;;;;;;;2.47;0.88;;;;;;;18.13;47.36;100110.75;7399492;19;20038;-84
2023/03/28 03:55:48;;;;;;;1.30;1.25;;;;;;;18.41;47.40;100104.19;7396311;19;20010;-84
2023/03/28 03:58:15;;;;;;;2.33;1.25;;;;;;;18.40;46.83;100111.88;7396560;19;20045;-84
2023/03/28 04:00:43;;;;;;;1.13;1.10;;;;;;;17.90;47.89;100103.72;7395405;19;20022;-84
2023/03/28 04:03:25;;;;;;;5.07;1.95;;;;;;;17.41;49.03;100107.50;7394030;19;20022;-85
2023/03/28 04:05:53;;;;;;;4.40;1.50;;;;;;;17.18;49.73;100094.75;7393883;19;20015;-84
2023/03/28 04:08:21;;;;;;;1.95;1.10;;;;;;;16.62;50.86;100089.19;7394889;19;20031;-84
2023/03/28 04:10:48;;;;;;;3.03;0.77;;;;;;;17.11;50.55;100084.00;7393071;19;20019;-84
2023/03/28 04:13:14;;;;;;;0.45;0.45;;;;;;;17.08;50.16;100091.44;7395457;19;20018;-83
2023/03/28 04:15:42;;;;;;;0.63;0.63;;;;;;;17.57;50.16;100081.34;7394319;19;20011;-84
2023/03/28 04:18:35;;;;;;;0.65;0.65;;;;;;;19.14;47.53;100076.88;7394761;19;20024;-84
2023/03/28 04:21:02;;;;;;;0.68;0.68;;;;;;;17.15;49.86;100073.28;7394294;19;20081;-84
2023/03/28 04:23:42;;;;;;;2.25;1.10;;;;;;;18.97;47.63;100084.75;7397821;19;20029;-84
2023/03/28 04:26:27;;;;;;;3.80;0.95;;;;;;;16.88;50.98;100082.50;7394283;19;20007;-84
2023/03/28 04:29:02;;;;;;;2.80;1.50;;;;;;;17.65;49.43;100084.38;7393911;19;20015;-84
2023/03/28 04:31:29;;;;;;;0.68;0.68;;;;;;;16.90;51.10;100075.09;7393774;19;20018;-83
2023/03/28 04:34:15;;;;;;;1.40;1.25;;;;;;;18.57;48.09;100075.09;7395868;19;20014;-84
2023/03/28 04:37:00;;;;;;;;;;;;;;;19.63;46.76;100067.09;7394942;19;20028;-85
2023/03/28 04:39:27;;;;;;;;;;;;;;;20.01;45.36;100068.63;7395503;19;20349;-84
2023/03/28 04:42:07;;;;;;;2.53;0.68;;;;;;;19.64;45.78;100066.53;7393480;19;19914;-84
2023/03/28 04:44:53;;;;;;;1.42;0.50;;;;;;;19.56;45.37;100068.44;7392410;19;20015;-84
2023/03/28 04:47:21;;;;;;;1.75;1.65;;;;;;;19.68;45.21;100058.53;7394140;19;20014;-83
2023/03/28 04:49:47;;;;;;;2.05;1.17;;;;;;;19.45;45.35;100065.00;7393145;19;20464;-84
2023/03/28 04:52:15;;;;;;;2.50;0.73;;;;;;;20.13;44.38;100053.03;7394387;19;20047;-84
2023/03/28 04:54:43;;;;;;;3.33;0.95;;;;;;;17.07;48.41;100049.72;7395370;19;20035;-84
2023/03/28 04:57:14;;;;;;;0.93;0.93;;;;;;;16.44;50.18;100055.16;7394355;19;20035;-84
2023/03/28 04:59:46;;;;;;;10.77;1.05;;;;;;;17.78;49.05;100057.16;7393995;19;20013;-84
2023/03/28 05:02:24;;;;;;;1.83;0.65;;;;;;;17.15;49.19;100059.19;7393590;19;20014;-84
2023/03/28 05:04:58;;;;;;;12.45;1.23;;;;;;;17.12;49.66;100063.81;7396052;19;20038;-84
2023/03/28 05:07:25;;;;;;;0.85;0.85;;;;;;;16.92;50.40;100063.31;7392436;19;20461;-84
2023/03/28 05:09:51;;;;;;;0.20;0.20;;;;;;;16.59;50.73;100066.94;7392363;19;20026;-83
2023/03/28 05:12:17;;;;;;;1.50;1.00;;;;;;;16.43;51.26;100067.69;7392960;19;20412;-83
2023/03/28 05:15:04;;;;;;;4.05;0.65;;;;;;;15.91;51.97;100059.72;7396287;19;20088;-83
2023/03/28 05:17:31;;;;;;;0.70;0.55;;;;;;;15.18;54.05;100060.66;7392777;19;20014;-84
2023/03/28 05:20:08;;;;;;;0.63;0.63;;;;;;;14.91;55.24;100064.09;7393609;19;20090;-83
2023/03/28 05:22:45;;;;;;;0.73;0.73;;;;;;;14.50;56.59;100068.38;7395733;19;20014;-83
2023/03/28 05:25:11;;;;;;;1.55;1.45;;;;;;;14.82;56.55;100072.69;7390263;19;20022;-83
2023/03/28 05:27:38;;;;;;;1.48;0.90;;;;;;;15.66;54.79;100071.09;7391668;19;20094;-83
2023/03/28 05:30:06;;;;;;;0.63;0.63;;;;;;;15.49;55.06;100070.28;7389741;19;20015;-83
2023/03/28 05:32:33;;;;;;;1.17;1.08;;;;;;;15.38;55.97;100073.00;7391030;19;20014;-83
2023/03/28 05:35:00;;;;;;;0.73;0.73;;;;;;;14.72;57.59;100062.16;7394390;19;20043;-84
2023/03/28 05:37:30;;;;;;;7.90;1.15;;;;;;;14.91;57.62;100064.09;7391757;19;20017;-83
2023/03/28 05:39:57;;;;;;;0.63;0.63;;;;;;;15.29;57.09;100048.72;7390930;19;20010;-81
2023/03/28 05:42:24;;;;;;;1.90;1.25;;;;;;;15.51;56.73;100048.06;7391927;19;20751;-82
2023/03/28 05:44:50;;;;;;;0.90;0.90;;;;;;;15.42;56.52;100045.50;7395486;19;20010;-81
2023/03/28 05:47:34;;;;;;;0.82;0.70;;;;;;;15.41;56.31;100044.72;7393050;19;20047;-80
2023/03/28 05:50:02;;;;;;;1.83;1.25;;;;;;;15.33;56.85;100037.28;7389472;19;20022;-80
2023/03/28 05:52:28;;;;;;;0.57;0.55;;;;;;;16.23;55.11;100034.19;7392179;19;20044;-80
2023/03/28 05:54:55;;;;;;;5.57;2.15;;;;;;;16.53;53.65;100024.78;7392636;19;20011;-79
2023/03/28 05:57:21;;;;;;;1.27;1.02;;;;;;;16.61;53.59;100025.78;7391597;19;20015;-80
2023/03/28 05:59:48;;;;;;;3.72;1.02;;;;;;;16.93;53.14;100017.03;7389621;19;20351;-81
2023/03/28 06:02:19;;;;;;;1.85;1.38;;;;;;;16.89;52.53;100019.34;7389664;19;20011;-80
2023/03/28 06:04:46;;;;;;;1.73;0.70;;;;;;;18.36;50.77;100006.28;7396241;19;20014;-80
2023/03/28 06:07:14;;;;;;;1.98;0.95;;;;;;;16.65;52.48;100017.84;7397756;19;20556;-80
2023/03/28 06:09:41;;;;;;;3.13;1.65;;;;;;;16.37;53.09;100011.44;7395417;19;20345;-80
2023/03/28 06:12:09;;;;;;;1.25;1.15;;;;;;;16.62;53.28;100016.06;7397329;19;20014;-80
2023/03/28 06:14:40;;;;;;;4.07;1.70;;;;;;;16.45;53.23;100020.91;7398349;19;20190;-80
2023/03/28 06:17:10;;;;;;;10.88;1.10;;;;;;;16.39;53.56;100008.91;7397014;19;20012;-80
2023/03/28 06:19:46;;;;;;;1.20;1.20;;;;;;;16.60;53.48;100007.41;7396128;19;20033;-80
2023/03/28 06:22:13;;;;;;;12.63;1.13;;;;;;;16.39;53.56;100013.78;7397449;19;20015;-79
2023/03/28 06:24:40;;;;;;;2.50;2.25;;;;;;;16.49;53.80;100015.81;7396673;19;20013;-80
2023/03/28 06:27:06;;;;;;;10.85;1.85;;;;;;;16.06;54.23;100005.31;7396203;19;20015;-80
2023/03/28 06:29:37;;;;;;;2.72;1.13;;;;;;;16.20;54.11;100007.88;7395734;19;20019;-80
2023/03/28 06:32:03;;;;;;;3.67;0.77;;;;;;;16.25;54.54;100004.31;7397458;19;20016;-80
2023/03/28 06:34:29;;;;;;;2.20;1.45;;;;;;;16.54;53.95;100008.69;7398467;19;20023;-80
2023/03/28 06:37:00;;;;;;;8.60;1.13;;;;;;;16.71;53.70;100003.78;7395952;19;20491;-80
2023/03/28 06:39:37;;;;;;;5.88;2.22;;;;;;;16.95;53.20;100000.41;7399644;19;20479;-81
2023/03/28 06:42:03;;;;;;;4.47;1.23;;;;;;;16.98;53.09;99993.75;7396373;19;20067;-81
2023/03/28 06:44:38;;;;;;;3.13;1.65;;;;;;;17.31;52.33;99994.38;7397603;19;20481;-80
2023/03/28 06:47:04;;;;;;;5.35;2.22;;;;;;;17.33;52.08;99988.22;7398154;19;20034;-81
2023/03/28 06:49:31;;;;;;;9.27;1.95;;;;;;;17.48;51.88;99983.03;7395210;19;20007;-80
2023/03/28 06:52:18;;;;;;;7.00;1.55;;;;;;;17.35;52.05;99974.41;7396862;19;20015;-80
2023/03/28 06:54:47;;;;;;;0.93;0.93;;;;;;;17.08;52.29;99972.47;7396959;19;20006;-80
2023/03/28 06:57:13;;;;;;;1.75;1.65;;;;;;;16.89;53.10;99966.66;7394591;19;20023;-80
2023/03/28 06:59:40;;;;;;;0.50;0.50;;;;;;;17.03;53.04;99953.56;7395397;19;20509;-80
2023/03/28 07:02:11;;;;;;;0.70;0.70;;;;;;;17.62;52.14;99945.38;7395801;19;20007;-80
2023/03/28 07:04:39;;;;;;;2.05;1.02;;;;;;;17.51;52.18;99939.78;7397616;19;20038;-80
2023/03/28 07:07:08;;;;;;;10.23;0.90;;;;;;;18.95;49.75;99929.28;7395320;19;20536;-80
2023/03/28 07:09:35;;;;;;;0.73;0.73;;;;;;;18.55;49.33;99926.16;7394604;19;20037;-82
2023/03/28 07:12:06;;;;;;;2.70;1.20;;;;;;;17.73;50.80;99922.75;7394556;19;20029;-80
2023/03/28 07:14:33;;;;;;;0.70;0.70;;;;;;;17.83;51.57;99915.50;7395966;19;20018;-80
2023/03/28 07:17:00;;;;;;;0.80;0.77;;;;;;;18.42;50.63;99916.75;7394791;19;20379;-81
2023/03/28 07:19:27;;;;;;;0.50;0.50;;;;;;;18.08;50.59;99902.22;7395564;19;20014;-81
2023/03/28 07:21:53;;;;;;;2.00;1.23;;;;;;;17.92;50.92;99908.75;7396100;19;20018;-81
2023/03/28 07:24:21;;;;;;;0.50;0.50;;;;;;;17.37;51.77;99910.66;7396292;19;20052;-81
2023/03/28 07:27:13;;;;;;;0.70;0.70;;;;;;;17.79;51.69;99912.19;7396046;19;20010;-81
2023/03/28 07:29:39;;;;;;;1.13;1.13;;;;;;;17.78;52.28;99913.47;7393504;19;20010;-81
2023/03/28 07:32:05;;;;;;;3.13;1.15;;;;;;;18.09;50.91;99907.34;7395060;19;20023;-81
2023/03/28 07:34:32;;;;;;;0.47;0.47;;;;;;;18.05;50.91;99906.88;7399439;19;20029;-81
2023/03/28 07:37:00;;;;;;;1.05;0.50;;;;;;;18.56;49.79;99904.34;7396760;19;20023;-80
2023/03/28 07:39:49;;;;;;;0.35;0.35;;;;;;;18.11;51.01;99904.75;7395999;19;20062;-81
2023/03/28 07:42:20;;;;;;;1.07;1.03;;;;;;;18.78;49.55;99898.44;7394417;19;20018;-81
2023/03/28 07:44:46;;;;;;;0.50;0.50;;;;;;;18.64;50.47;99905.28;7395674;19;20493;-81
2023/03/28 07:47:15;;;;;;;0.40;0.40;;;;;;;18.28;51.66;99896.13;7394516;19;20021;-81
2023/03/28 07:49:41;;;;;;;1.65;0.60;;;;;;;17.97;52.12;99894.66;7392817;19;20078;-81
2023/03/28 07:52:08;;;;;;;0.90;0.73;;;;;;;18.42;52.24;99894.19;7395523;19;20007;-80
2023/03/28 07:54:35;;;;;;;0.95;0.70;;;;;;;18.32;51.67;99878.94;7395173;19;20030;-80
2023/03/28 07:57:01;;;;;;;2.47;0.75;;;;;;;17.80;52.71;99888.38;7394746;19;20668;-81
2023/03/28 07:59:45;;;;;;;0.65;0.52;;;;;;;18.29;52.40;99886.38;7393524;19;20018;-81
2023/03/28 08:02:11;;;;;;;4.28;1.33;;;;;;;18.26;52.76;99876.16;7392437;19;20018;-80
2023/03/28 08:04:38;;;;;;;0.60;0.60;;;;;;;18.50;52.40;99867.72;7395831;19;20099;-80
2023/03/28 08:07:09;;;;;;;4.85;0.82;;;;;;;17.91;53.43;99860.09;7393477;19;20015;-81
2023/03/28 08:09:37;;;;;;;1.08;0.68;;;;;;;17.64;53.49;99868.78;7392538;19;20015;-81
2023/03/28 08:12:14;;;;;;;0.35;0.35;;;;;;;17.63;54.31;99853.94;7393172;19;20030;-80
2023/03/28 08:14:42;;;;;;;1.27;0.63;;;;;;;17.74;54.11;99858.72;7394892;19;20022;-80
2023/03/28 08:17:09;;;;;;;1.85;1.60;;;;;;;17.15;55.27;99859.38;7393491;19;20383;-79
2023/03/28 08:19:36;;;;;;;1.65;1.35;;;;;;;17.19;55.81;99849.38;7393396;19;20037;-80
2023/03/28 08:22:11;;;;;;;0.52;0.52;;;;;;;16.84;56.38;99851.34;7396157;19;20027;-79
2023/03/28 08:24:46;;;;;;;0.50;0.50;;;;;;;16.96;57.30;99841.56;7394802;19;20014;-79
2023/03/28 08:27:17;;;;;;;0.52;0.52;;;;;;;17.11;57.06;99841.97;7390877;19;20483;-79
2023/03/28 08:29:46;;;;;;;0.75;0.75;;;;;;;17.28;57.13;99840.59;7391485;19;20045;-79
2023/03/28 08:32:13;;;;;;;18.80;1.23;;;;;;;16.81;59.52;99835.50;7392888;19;20012;-79
2023/03/28 08:34:40;;;;;;;0.60;0.60;;;;;;;17.23;58.26;99838.59;7393929;19;20010;-80
2023/03/28 08:37:13;;;;;;;0.73;0.73;;;;;;;18.37;56.21;99830.94;7392367;19;20014;-79
2023/03/28 08:39:41;;;;;;;4.68;1.08;;;;;;;18.32;56.13;99825.38;7391545;19;20015;-79
2023/03/28 08:42:30;;;;;;;0.70;0.70;;;;;;;18.62;55.46;99828.88;7391638;19;20014;-79
2023/03/28 08:45:21;;;;;;;0.50;0.50;;;;;;;20.16;53.35;99839.09;7394350;19;20027;-80
2023/03/28 08:48:12;;;;;;;0.40;0.40;;;;;;;24.98;45.33;99829.09;7394530;19;20007;-80
2023/03/28 08:50:57;;;;;;;;;;;;;;;22.86;45.07;99824.66;7391443;19;20074;-79
2023/03/28 08:53:25;;;;;;;1.35;1.25;;;;;;;26.72;39.10;99825.66;7395615;19;19933;-79
2023/03/28 08:55:53;;;;;;;0.45;0.45;;;;;;;21.41;45.57;99821.31;7392789;19;20457;-80
2023/03/28 08:58:22;;;;;;;0.68;0.68;;;;;;;20.26;48.04;99823.25;7393502;19;20021;-78
2023/03/28 09:00:50;;;;;;;0.50;0.50;;;;;;;20.20;48.32;99819.75;7390908;19;20010;-79
2023/03/28 09:03:20;;;;;;;7.03;1.08;;;;;;;19.48;49.67;99813.28;7391956;19;20050;-80
2023/03/28 09:05:59;;;;;;;4.38;0.68;;;;;;;18.89;50.65;99819.28;7391361;19;20077;-79
2023/03/28 09:08:40;;;;;;;0.70;0.70;;;;;;;19.12;51.19;99820.50;7391141;19;20510;-79
2023/03/28 09:11:25;;;;;;;0.82;0.82;;;;;;;19.92;50.28;99817.44;7390153;19;20018;-79
2023/03/28 09:14:20;;;;;;;1.42;1.02;;;;;;;19.36;51.04;99811.19;7392626;19;20022;-79
2023/03/28 09:17:01;;;;;;;1.70;1.00;;;;;;;18.87;51.82;99804.94;7390973;19;20461;-79
2023/03/28 09:19:55;;;;;;;1.65;0.77;;;;;;;19.88;50.83;99807.75;7390038;19;20389;-79
2023/03/28 09:23:02;;;;;;;0.98;0.60;;;;;;;19.27;51.79;99808.72;7391237;19;20022;-79
2023/03/28 09:26:03;;;;;;;5.05;1.00;;;;;;;18.78;52.75;99805.31;7390503;19;20018;-79
2023/03/28 09:28:38;;;;;;;0.93;0.60;;;;;;;18.19;54.45;99807.03;7389994;19;20031;-80
2023/03/28 09:31:08;;;;;;;1.55;0.80;;;;;;;18.17;54.97;99809.63;7388891;19;20010;-79
2023/03/28 09:33:37;;;;;;;0.80;0.80;;;;;;;18.26;55.14;99802.13;7391948;19;20052;-79
2023/03/28 09:36:20;;;;;;;1.05;1.05;;;;;;;18.45;55.00;99805.75;7390772;19;20017;-79
2023/03/28 09:38:57;;;;;;;0.82;0.63;;;;;;;19.08;55.01;99791.81;7387850;19;20362;-80
2023/03/28 09:41:30;;;;;;;1.40;1.02;;;;;;;19.85;52.15;99789.81;7390252;19;20022;-80
2023/03/28 09:44:27;;;;;;;0.60;0.60;;;;;;;19.10;53.33;99789.19;7387412;19;20022;-80
2023/03/28 09:47:25;;;;;;;0.88;0.70;;;;;;;18.92;54.31;99779.47;7392345;19;20014;-79
2023/03/28 09:50:00;;;;;;;0.30;0.30;;;;;;;18.67;54.70;99774.44;7388260;19;20473;-79
2023/03/28 09:52:29;;;;;;;5.72;1.05;;;;;;;18.72;55.62;99770.78;7391531;19;20360;-79
2023/03/28 09:54:57;;;;;;;1.23;1.20;;;;;;;18.61;55.91;99770.94;7391982;19;20089;-79
2023/03/28 09:57:23;;;;;;;0.32;0.32;;;;;;;18.56;56.86;99768.97;7389779;19;20010;-79
2023/03/28 10:00:06;;;;;;;2.17;1.98;;;;;;;18.75;56.98;99764.09;7387805;19;20397;-79
2023/03/28 10:02:51;;;;;;;0.57;0.57;;;;;;;19.15;55.88;99754.47;7388959;19;20019;-79
2023/03/28 10:05:39;;;;;;;0.70;0.70;;;;;;;18.44;57.76;99753.44;7389136;19;20007;-79
2023/03/28 10:08:21;;;;;;;0.50;0.50;;;;;;;18.52;57.76;99751.56;7388927;19;20371;-79
2023/03/28 10:11:05;;;;;;;1.23;0.50;;;;;;;19.23;57.24;99749.72;7386948;19;20018;-79
2023/03/28 10:13:42;;;;;;;2.22;1.02;;;;;;;19.69;56.87;99751.28;7391440;19;20501;-79
2023/03/28 10:16:11;;;;;;;1.10;0.93;;;;;;;17.89;59.94;99752.78;7388826;19;20022;-81
2023/03/28 10:18:56;;;;;;;8.35;1.75;;;;;;;17.45;62.21;99741.94;7389271;19;20077;-79
2023/03/28 10:21:36;;;;;;;0.70;0.70;;;;;;;17.28;63.58;99753.34;7389000;19;20007;-78
2023/03/28 10:24:14;;;;;;;2.65;0.75;;;;;;;17.05;66.17;99751.22;7390503;19;20019;-79
2023/03/28 10:26:44;;;;;;;1.67;0.52;;;;;;;17.14;66.44;99751.66;7389622;19;20771;-79
2023/03/28 10:29:12;;;;;;;0.63;0.63;;;;;;;16.82;68.24;99742.19;7388718;19;20107;-79
2023/03/28 10:31:47;;;;;;;8.70;1.30;;;;;;;16.63;72.98;99742.03;7388375;19;20020;-79
2023/03/28 10:34:28;;;;;;;4.32;1.30;;;;;;;16.67;75.57;99739.69;7388958;19;20014;-79
2023/03/28 10:37:30;;;;;;;2.13;1.45;;;;;;;16.62;79.23;99723.63;7386427;19;20491;-79
2023/03/28 10:40:31;;;;;;;1.15;1.05;;;;;;;16.64;81.59;99726.69;7386944;19;20472;-79
2023/03/28 10:43:39;;;;;;;2.28;0.95;;;;;;;16.37;85.21;99718.38;7386275;19;20031;-79
2023/03/28 10:46:31;;;;;;;0.52;0.52;;;;;;;16.79;85.50;99709.47;7387426;19;20050;-78
2023/03/28 10:49:22;;;;;;;3.72;1.42;;;;;;;17.01;87.13;99702.91;7387001;19;20007;-79
2023/03/28 10:52:11;;;;;;;6.28;1.70;;;;;;;16.97;87.65;99699.63;7395766;19;20018;-79
2023/03/28 10:54:48;;;;;;;2.08;1.67;;;;;;;16.09;95.29;99701.63;7398602;19;20018;-79
2023/03/28 10:57:49;;;;;;;3.22;1.10;;;;;;;15.74;100.00;99684.69;7395199;19;20014;-79
2023/03/28 11:00:39;;;;;;;1.75;0.75;;;;;;;16.39;100.00;99677.25;7395035;19;20011;-83
2023/03/28 11:03:14;;;;;;;4.45;0.88;;;;;;;16.59;100.00;99671.25;7395183;19;20027;-81
2023/03/28 11:05:51;;;;;;;3.42;1.55;;;;;;;16.32;100.00;99674.97;7395193;19;20011;-78
2023/03/28 11:08:36;;;;;;;1.80;1.20;;;;;;;17.42;98.42;99666.97;7395494;19;20073;-78
2023/03/28 11:11:28;;;;;;;1.55;0.63;;;;;;;18.27;93.20;99657.03;7393225;19;20011;-78
2023/03/28 11:14:33;;;;;;;2.38;1.13;;;;;;;18.45;90.42;99656.31;7395268;19;20015;-79
2023/03/28 11:17:10;;;;;;;5.50;0.98;;;;;;;18.25;89.33;99653.97;7394546;19;20014;-79
2023/03/28 11:19:47;;;;;;;6.05;1.23;;;;;;;18.27;91.06;99648.56;7395922;19;20056;-80
2023/03/28 11:22:25;;;;;;;3.38;1.48;;;;;;;18.18;92.49;99633.56;7396317;19;20085;-80
2023/03/28 11:24:59;;;;;;;0.30;0.30;;;;;;;18.05;92.45;99635.53;7397446;19;20010;-80
2023/03/28 11:27:50;;;;;;;;;;;;;;;18.24;89.75;99632.72;7395338;19;20022;-80
2023/03/28 11:30:47;;;;;;;0.40;0.40;;;;;;;18.61;86.74;99618.59;7393861;19;19921;-79
2023/03/28 11:33:45;;;;;;;2.88;1.15;;;;;;;18.21;88.18;99614.06;7395148;19;20025;-79
2023/03/28 11:36:41;;;;;;;1.45;0.50;;;;;;;18.45;87.25;99614.75;7395886;19;20054;-79
2023/03/28 11:39:19;;;;;;;1.77;1.00;;;;;;;18.52;86.36;99610.53;7393573;19;20010;-79
2023/03/28 11:41:49;;;;;;;2.83;1.27;;;;;;;18.33;86.07;99606.97;7394159;19;20033;-77
2023/03/28 11:44:46;;;;;;;0.38;0.38;;;;;;;18.90;83.01;99606.34;7397036;19;20018;-77
2023/03/28 11:47:23;;;;;;;6.15;1.42;;;;;;;19.27;78.77;99597.72;7395131;19;20025;-77
2023/03/28 11:50:05;;;;;;;1.08;0.73;;;;;;;19.18;78.02;99600.97;7392749;19;20014;-78
2023/03/28 11:53:01;;;;;;;1.33;1.23;;;;;;;19.42;76.00;99589.50;7395803;19;20010;-78
2023/03/28 11:55:38;;;;;;;2.22;1.05;;;;;;;19.78;74.39;99574.88;7390783;19;20014;-77
2023/03/28 11:58:22;;;;;;;0.40;0.40;;;;;;;20.02;71.79;99577.47;7393170;19;20013;-76
2023/03/28 12:01:04;;;;;;;2.75;0.75;;;;;;;19.93;72.68;99573.03;7393627;19;20019;-77
2023/03/28 12:03:43;;;;;;;0.20;0.20;;;;;;;19.61;72.51;99570.38;7392021;19;20018;-76
2023/03/28 12:06:15;;;;;;;4.10;0.60;;;;;;;19.73;72.13;99570.13;7393631;19;20699;-77
2023/03/28 12:09:10;;;;;;;4.75;0.68;;;;;;;19.54;71.95;99558.94;7393603;19;20015;-77